createdAt,value
2022-08-17T00:00:49.523Z,74.25
2022-08-17T00:06:05.153Z,74.13
2022-08-17T00:11:13.791Z,74.28
2022-08-17T00:16:55.368Z,74.12
2022-08-17T00:22:32.988Z,74.35
2022-08-17T00:27:14.256Z,74.25
2022-08-17T00:33:14.624Z,74.56
2022-08-17T00:37:41.479Z,74.94
2022-08-17T00:42:49.969Z,74.97
2022-08-17T00:47:54.092Z,75.06
2022-08-17T00:52:58.818Z,74.91
2022-08-17T00:58:05.707Z,75.10
2022-08-17T01:03:22.651Z,75.23
2022-08-17T01:08:30.126Z,75.37
2022-08-17T01:13:41.109Z,75.42
2022-08-17T01:18:48.630Z,75.19
2022-08-17T01:23:52.523Z,75.17
2022-08-17T01:28:56.431Z,74.96
2022-08-17T01:34:05.872Z,74.99
2022-08-17T01:39:28.265Z,75.40
2022-08-17T01:44:32.385Z,75.39
2022-08-17T01:49:36.211Z,75.22
2022-08-17T01:54:44.346Z,75.24
2022-08-17T01:59:48.197Z,75.42
2022-08-17T02:04:51.725Z,75.38
2022-08-17T02:09:57.079Z,75.08
2022-08-17T02:15:01.876Z,75.53
2022-08-17T02:20:05.941Z,75.97
2022-08-17T02:25:11.918Z,76.22
2022-08-17T02:31:00.938Z,76.43
2022-08-17T02:35:39.797Z,76.35
2022-08-17T02:40:43.342Z,76.46
2022-08-17T02:45:49.538Z,76.41
2022-08-17T02:50:54.218Z,76.42
2022-08-17T02:55:57.946Z,75.98
2022-08-17T03:01:02.109Z,75.99
2022-08-17T03:06:07.867Z,75.84
2022-08-17T03:11:11.877Z,75.76
2022-08-17T03:16:15.630Z,76.01
2022-08-17T03:21:19.213Z,75.89
2022-08-17T03:26:22.560Z,76.52
2022-08-17T03:31:27.398Z,76.31
2022-08-17T03:36:36.084Z,76.40
2022-08-17T03:41:43.401Z,76.93
2022-08-17T03:47:10.570Z,77.20
2022-08-17T03:52:32.420Z,77.18
2022-08-17T03:57:36.868Z,77.41
2022-08-17T04:02:43.011Z,77.48
2022-08-17T04:07:46.787Z,77.39
2022-08-17T04:12:53.229Z,77.03
2022-08-17T04:17:57.122Z,77.30
2022-08-17T04:23:05.691Z,77.20
2022-08-17T04:28:15.754Z,77.43
2022-08-17T04:33:25.876Z,77.30
2022-08-17T04:38:32.607Z,77.55
2022-08-17T04:43:38.839Z,77.63
2022-08-17T04:48:46.119Z,77.83
2022-08-17T04:53:54.881Z,78.00
2022-08-17T04:59:02.927Z,78.06
2022-08-17T05:04:33.637Z,78.02
2022-08-17T05:09:37.733Z,77.99
2022-08-17T05:14:41.678Z,77.90
2022-08-17T05:19:50.000Z,78.03
2022-08-17T05:24:56.200Z,78.02
2022-08-17T05:30:01.665Z,78.12
2022-08-17T05:35:05.931Z,78.19
2022-08-17T05:40:10.822Z,77.78
2022-08-17T05:45:16.245Z,77.58
2022-08-17T05:50:56.485Z,77.01
2022-08-17T05:56:29.492Z,76.39
2022-08-17T06:01:44.635Z,75.77
2022-08-17T06:07:05.976Z,75.23
2022-08-17T06:13:01.951Z,74.87
2022-08-17T06:18:09.707Z,74.93
2022-08-17T06:23:27.229Z,74.56
2022-08-17T06:28:43.294Z,74.48
2022-08-17T06:33:48.110Z,73.92
2022-08-17T06:39:39.724Z,73.66
2022-08-17T06:45:17.910Z,73.14
2022-08-17T06:50:50.223Z,72.65
2022-08-17T06:56:06.719Z,72.00
2022-08-17T07:01:20.818Z,71.51
2022-08-17T07:06:33.292Z,70.65
2022-08-17T07:11:49.029Z,69.23
2022-08-17T07:16:57.084Z,67.80
2022-08-17T07:22:14.401Z,65.93
2022-08-17T07:27:46.603Z,64.22
2022-08-17T07:32:54.267Z,63.48
2022-08-17T07:38:25.584Z,62.63
2022-08-17T07:43:41.768Z,61.46
2022-08-17T07:48:55.520Z,60.72
2022-08-17T07:54:14.009Z,59.44
2022-08-17T07:59:24.066Z,58.56
2022-08-17T08:05:00.500Z,57.78
2022-08-17T08:10:10.671Z,56.86
2022-08-17T08:15:18.079Z,56.62
2022-08-17T08:20:52.043Z,56.10
2022-08-17T08:26:49.508Z,55.36
2022-08-17T08:31:59.938Z,54.69
2022-08-17T08:37:35.577Z,53.78
2022-08-17T08:42:58.438Z,54.03
2022-08-17T08:48:23.092Z,53.22
2022-08-17T08:53:43.855Z,52.28
2022-08-17T08:59:12.366Z,51.83
2022-08-17T09:04:55.879Z,51.42
2022-08-17T09:10:24.678Z,51.03
2022-08-17T09:15:35.207Z,50.74
2022-08-17T09:21:03.393Z,50.73
2022-08-17T09:26:26.690Z,50.12
2022-08-17T09:31:47.023Z,49.17
2022-08-17T09:37:14.738Z,48.53
2022-08-17T09:42:41.019Z,48.69
2022-08-17T09:47:56.634Z,48.43
2022-08-17T09:53:00.344Z,47.70
2022-08-17T09:58:15.348Z,47.02
2022-08-17T10:03:44.660Z,46.41
2022-08-17T10:09:12.468Z,46.99
2022-08-17T10:14:37.382Z,46.53
2022-08-17T10:20:16.907Z,46.21
2022-08-17T10:25:54.122Z,45.74
2022-08-17T10:31:33.187Z,45.73
2022-08-17T10:36:47.851Z,44.41
2022-08-17T10:41:57.755Z,44.32
2022-08-17T10:47:15.197Z,43.86
2022-08-17T10:52:21.097Z,44.16
2022-08-17T10:57:27.076Z,43.99
2022-08-17T11:02:41.014Z,44.22
2022-08-17T11:08:10.751Z,43.26
2022-08-17T11:13:30.624Z,43.40
2022-08-17T11:19:22.801Z,43.81
2022-08-17T11:24:40.536Z,43.73
2022-08-17T11:29:52.071Z,43.13
2022-08-17T11:35:32.158Z,43.14
2022-08-17T11:40:45.299Z,42.55
2022-08-17T11:46:21.763Z,42.41
2022-08-17T11:52:08.531Z,42.73
2022-08-17T11:57:28.260Z,42.99
2022-08-17T12:02:35.503Z,43.09
2022-08-17T12:07:52.613Z,43.50
2022-08-17T12:12:57.704Z,44.51
2022-08-17T12:18:05.201Z,43.43
2022-08-17T12:23:39.111Z,43.01
2022-08-17T12:28:47.405Z,43.42
2022-08-17T12:33:52.991Z,43.64
2022-08-17T12:39:13.797Z,43.55
2022-08-17T12:44:32.499Z,43.85
2022-08-17T12:49:44.012Z,44.25
2022-08-17T12:54:47.577Z,44.21
2022-08-17T13:00:10.283Z,43.81
2022-08-17T13:05:30.702Z,43.78
2022-08-17T13:10:36.410Z,43.72
2022-08-17T13:15:44.741Z,43.51
2022-08-17T13:20:55.970Z,43.16
2022-08-17T13:26:07.077Z,43.09
2022-08-17T13:31:52.214Z,43.13
2022-08-17T13:37:20.962Z,42.80
2022-08-17T13:42:52.660Z,43.21
2022-08-17T13:48:11.163Z,43.16
2022-08-17T13:53:36.867Z,42.40
2022-08-17T13:58:54.476Z,42.48
2022-08-17T14:04:01.443Z,42.21
2022-08-17T14:09:06.090Z,41.77
2022-08-17T14:14:10.315Z,41.49
2022-08-17T14:19:16.567Z,41.60
2022-08-17T14:24:35.805Z,41.73
2022-08-17T14:29:42.078Z,41.85
2022-08-17T14:34:46.703Z,41.82
2022-08-17T14:39:50.460Z,42.13
2022-08-17T14:44:55.619Z,41.70
2022-08-17T14:49:59.848Z,41.52
2022-08-17T14:55:03.863Z,41.43
2022-08-17T15:00:08.374Z,41.61
2022-08-17T15:05:11.807Z,41.75
2022-08-17T15:10:16.157Z,41.46
2022-08-17T15:15:19.586Z,41.69
2022-08-17T15:20:29.200Z,42.29
2022-08-17T15:25:33.796Z,42.22
2022-08-17T15:30:38.800Z,42.39
2022-08-17T15:35:43.243Z,42.52
2022-08-17T15:40:50.340Z,42.08
2022-08-17T15:46:00.667Z,43.27
2022-08-17T15:51:05.649Z,43.73
2022-08-17T15:56:10.001Z,43.89
2022-08-17T16:01:46.564Z,44.59
2022-08-17T16:06:43.398Z,45.23
2022-08-17T16:11:52.133Z,45.84
2022-08-17T16:16:59.933Z,46.52
2022-08-17T16:22:07.611Z,47.51
2022-08-17T16:27:13.330Z,48.06
2022-08-17T16:32:31.904Z,48.68
2022-08-17T16:37:37.613Z,49.01
2022-08-17T16:42:43.546Z,49.42
2022-08-17T16:47:50.304Z,50.20
2022-08-17T16:53:16.647Z,50.67
2022-08-17T16:58:23.512Z,51.46
2022-08-17T17:03:29.514Z,51.99
2022-08-17T17:08:52.568Z,52.62
2022-08-17T17:14:02.517Z,53.60
2022-08-17T17:19:37.336Z,54.27
2022-08-17T17:24:59.135Z,55.04
2022-08-17T17:30:13.729Z,55.54
2022-08-17T17:35:17.958Z,55.86
2022-08-17T17:40:32.634Z,56.54
2022-08-17T17:45:53.305Z,56.92
2022-08-17T17:52:02.807Z,57.43
2022-08-17T17:57:02.665Z,57.95
2022-08-17T18:02:45.624Z,58.73
2022-08-17T18:08:33.980Z,59.13
2022-08-17T18:13:59.849Z,59.71
2022-08-17T18:19:07.123Z,60.17
2022-08-17T18:24:14.513Z,60.68
2022-08-17T18:29:32.303Z,61.06
2022-08-17T18:34:48.327Z,61.67
2022-08-17T18:39:55.597Z,62.15
2022-08-17T18:44:59.647Z,62.57
2022-08-17T18:50:28.197Z,63.07
2022-08-17T18:55:32.991Z,63.65
2022-08-17T19:00:39.633Z,63.96
2022-08-17T19:05:46.584Z,64.09
2022-08-17T19:11:10.593Z,64.66
2022-08-17T19:16:32.744Z,65.25
2022-08-17T19:21:47.112Z,65.34
2022-08-17T19:26:57.738Z,65.72
2022-08-17T19:32:02.898Z,66.28
2022-08-17T19:37:37.009Z,66.37
2022-08-17T19:43:23.837Z,66.81
2022-08-17T19:48:46.261Z,67.11
2022-08-17T19:54:20.809Z,67.46
2022-08-17T19:59:42.514Z,68.08
2022-08-17T20:04:50.389Z,68.32
2022-08-17T20:10:07.070Z,68.82
2022-08-17T20:15:23.517Z,69.00
2022-08-17T20:21:00.008Z,69.12
2022-08-17T20:26:09.754Z,69.43
2022-08-17T20:31:50.913Z,69.52
2022-08-17T20:37:15.540Z,69.73
2022-08-17T20:42:22.935Z,69.49
2022-08-17T20:48:07.270Z,69.78
2022-08-17T20:53:15.034Z,69.87
2022-08-17T20:58:29.967Z,69.81
2022-08-17T21:03:49.130Z,69.79
2022-08-17T21:09:16.364Z,69.72
2022-08-17T21:14:59.587Z,69.94
2022-08-17T21:20:28.008Z,69.87
2022-08-17T21:25:42.705Z,69.86
2022-08-17T21:30:53.068Z,69.97
2022-08-17T21:36:00.517Z,70.13
2022-08-17T21:41:07.056Z,69.90
2022-08-17T21:46:32.717Z,70.28
2022-08-17T21:51:45.527Z,70.60
2022-08-17T21:56:50.584Z,70.64
2022-08-17T22:02:00.332Z,70.70
2022-08-17T22:07:13.966Z,70.66
2022-08-17T22:12:24.851Z,70.63
2022-08-17T22:17:37.364Z,70.61
2022-08-17T22:23:06.842Z,70.76
2022-08-17T22:28:13.634Z,71.15
2022-08-17T22:33:42.559Z,71.28
2022-08-17T22:38:48.393Z,71.25
2022-08-17T22:43:54.357Z,71.47
2022-08-17T22:49:00.447Z,71.62
2022-08-17T22:54:36.944Z,71.78
2022-08-17T22:59:54.516Z,72.04
2022-08-17T23:05:14.082Z,71.91
2022-08-17T23:10:20.130Z,71.84
2022-08-17T23:15:27.024Z,72.09
2022-08-17T23:20:34.640Z,71.93
2022-08-17T23:25:39.433Z,71.60
2022-08-17T23:30:46.410Z,72.00
2022-08-17T23:35:55.099Z,72.06
2022-08-17T23:41:05.131Z,72.28
2022-08-17T23:46:09.979Z,72.22
2022-08-17T23:51:22.034Z,72.32
2022-08-17T23:56:26.979Z,72.52
